Time;durP1;ratioP1;P1;durP2;ratioP2;P2;SDS_P1;SDS_P2;PMS_P1;PMS_P2;Temp;Humidity;BMP_temperature;BMP_pressure;BME280_temperature;BME280_humidity;BME280_pressure;Samples;Min_cycle;Max_cycle;Signal;HPM_P1;HPM_P2
2022/01/10 00:00:22;;;;;;;16.45;9.95;;;3.90;99.90;;;;;;2121957;27;20026;-72
2022/01/10 00:01:28;;;;;;;17.80;10.45;;;4.00;99.90;;;;;;2113868;28;20582;-70
2022/01/10 00:02:29;;;;;;;15.23;9.48;;;3.90;99.90;;;;;;2114093;28;20123;-73
2022/01/10 00:03:29;;;;;;;16.40;9.45;;;4.00;99.90;;;;;;2113854;28;20470;-72
2022/01/10 00:04:30;;;;;;;16.10;9.85;;;4.00;99.90;;;;;;2113724;28;20024;-73
2022/01/10 00:05:31;;;;;;;13.60;9.27;;;3.90;99.90;;;;;;2113399;28;20039;-73
2022/01/10 00:06:31;;;;;;;14.98;9.65;;;4.00;99.90;;;;;;2113245;28;20055;-72
2022/01/10 00:07:32;;;;;;;16.58;9.93;;;4.00;99.90;;;;;;2113792;28;20459;-73
2022/01/10 00:08:42;;;;;;;17.38;9.45;;;4.00;99.90;;;;;;2114541;28;20023;-71
2022/01/10 00:09:42;;;;;;;16.38;9.45;;;4.00;99.90;;;;;;2113339;28;20495;-71
2022/01/10 00:10:44;;;;;;;18.42;9.82;;;3.90;99.90;;;;;;2114136;28;20072;-76
2022/01/10 00:11:44;;;;;;;18.00;9.18;;;4.00;99.90;;;;;;2114891;28;21001;-72
2022/01/10 00:12:45;;;;;;;16.55;9.48;;;4.00;99.90;;;;;;2114733;28;20027;-70
2022/01/10 00:13:46;;;;;;;18.08;9.85;;;4.00;99.90;;;;;;2113898;28;20673;-71
2022/01/10 00:14:47;;;;;;;16.58;9.05;;;4.00;99.90;;;;;;2121834;28;20091;-71
2022/01/10 00:15:47;;;;;;;16.13;9.25;;;4.00;99.90;;;;;;2113256;28;20015;-71
2022/01/10 00:16:48;;;;;;;18.23;9.35;;;4.00;99.90;;;;;;2113397;28;20039;-72
2022/01/10 00:17:48;;;;;;;16.08;9.60;;;3.90;99.90;;;;;;2123332;27;20023;-71
2022/01/10 00:18:49;;;;;;;17.13;9.23;;;4.00;99.90;;;;;;2115075;28;20027;-72
2022/01/10 00:19:50;;;;;;;16.23;9.35;;;4.00;99.90;;;;;;2115411;28;20032;-71
2022/01/10 00:20:50;;;;;;;15.50;9.18;;;4.00;99.90;;;;;;2115605;28;20098;-71
2022/01/10 00:21:51;;;;;;;17.45;9.02;;;4.00;99.90;;;;;;2115112;28;20051;-70
2022/01/10 00:22:52;;;;;;;18.67;9.20;;;4.00;99.90;;;;;;2115575;28;20024;-71
2022/01/10 00:23:52;;;;;;;17.05;9.50;;;4.00;99.90;;;;;;2115831;28;20021;-71
2022/01/10 00:24:53;;;;;;;15.77;8.90;;;4.00;99.90;;;;;;2115596;28;20122;-71
2022/01/10 00:25:53;;;;;;;16.77;8.88;;;4.00;99.90;;;;;;2115749;28;20031;-72
2022/01/10 00:26:54;;;;;;;13.63;8.52;;;4.00;99.90;;;;;;2115639;28;20016;-71
2022/01/10 00:27:56;;;;;;;17.70;9.18;;;4.00;99.90;;;;;;2115097;28;20023;-71
2022/01/10 00:28:57;;;;;;;17.67;8.77;;;4.00;99.90;;;;;;2107069;27;20031;-72
2022/01/10 00:29:57;;;;;;;15.18;9.13;;;4.00;99.90;;;;;;2105774;28;20066;-72
2022/01/10 00:30:58;;;;;;;14.43;8.70;;;4.00;99.90;;;;;;2114102;28;20034;-71
2022/01/10 00:31:59;;;;;;;15.35;8.82;;;4.00;99.90;;;;;;2115137;27;20513;-70
2022/01/10 00:33:00;;;;;;;18.02;9.43;;;4.00;99.90;;;;;;2114515;28;20510;-69
2022/01/10 00:34:02;;;;;;;14.68;9.00;;;4.00;99.90;;;;;;2104148;28;20491;-69
2022/01/10 00:35:03;;;;;;;14.18;8.25;;;4.10;99.90;;;;;;2106946;27;21124;-73
2022/01/10 00:36:04;;;;;;;17.38;9.25;;;4.10;99.90;;;;;;2117328;28;20028;-72
2022/01/10 00:37:05;;;;;;;14.98;8.50;;;4.10;99.90;;;;;;2116049;28;20111;-70
2022/01/10 00:38:06;;;;;;;16.55;8.88;;;4.10;99.90;;;;;;2116105;28;20505;-73
2022/01/10 00:39:07;;;;;;;15.52;9.07;;;4.10;99.90;;;;;;2114399;28;20505;-73
2022/01/10 00:40:10;;;;;;;17.85;9.73;;;4.10;99.90;;;;;;2108565;28;20032;-73
2022/01/10 00:41:11;;;;;;;14.82;8.85;;;4.10;99.90;;;;;;2113860;28;20136;-73
2022/01/10 00:42:13;;;;;;;16.50;9.05;;;4.10;99.90;;;;;;2107623;28;20519;-71
2022/01/10 00:43:18;;;;;;;13.90;9.27;;;4.10;99.90;;;;;;2106990;28;20028;-71
2022/01/10 00:44:25;;;;;;;16.25;9.43;;;4.10;99.90;;;;;;2109516;28;20028;-74
2022/01/10 00:45:28;;;;;;;17.40;9.32;;;4.10;99.90;;;;;;2115801;28;20036;-74
2022/01/10 00:46:28;;;;;;;15.52;9.02;;;4.10;99.90;;;;;;2116696;28;20038;-72
2022/01/10 00:47:30;;;;;;;17.88;9.48;;;4.10;99.90;;;;;;2114159;28;20048;-73
2022/01/10 00:48:37;;;;;;;16.23;9.45;;;4.10;99.90;;;;;;2116718;27;20487;-72
2022/01/10 00:49:38;;;;;;;16.25;9.38;;;4.10;99.90;;;;;;2113447;28;20019;-70
2022/01/10 00:50:39;;;;;;;15.63;9.30;;;4.00;99.90;;;;;;2115710;27;20023;-72
2022/01/10 00:51:39;;;;;;;17.77;9.02;;;4.10;99.90;;;;;;2114698;28;20455;-72
2022/01/10 00:52:40;;;;;;;16.73;9.35;;;4.10;99.90;;;;;;2115089;28;20023;-71
2022/01/10 00:53:44;;;;;;;17.70;9.18;;;4.10;99.90;;;;;;2116146;28;20529;-71
2022/01/10 00:54:46;;;;;;;18.83;9.18;;;4.10;99.90;;;;;;2115316;28;20102;-70
2022/01/10 00:55:47;;;;;;;16.38;9.18;;;4.10;99.90;;;;;;2106633;28;20031;-73
2022/01/10 00:56:48;;;;;;;13.60;9.18;;;4.00;99.90;;;;;;2100017;28;20044;-72
2022/01/10 00:57:49;;;;;;;15.82;9.27;;;4.00;99.90;;;;;;2115223;28;20027;-72
2022/01/10 00:58:50;;;;;;;15.18;8.93;;;4.00;99.90;;;;;;2115542;28;20027;-71
2022/01/10 00:59:51;;;;;;;14.85;9.57;;;4.10;99.90;;;;;;2123196;27;20068;-71
2022/01/10 01:00:52;;;;;;;15.98;9.43;;;4.00;99.90;;;;;;2114999;28;20077;-71
2022/01/10 01:01:52;;;;;;;16.20;8.98;;;4.10;99.90;;;;;;2113437;28;20011;-71
2022/01/10 01:02:53;;;;;;;15.00;9.30;;;4.10;99.90;;;;;;2107796;28;20028;-71
2022/01/10 01:03:54;;;;;;;14.38;9.25;;;4.10;99.90;;;;;;2105450;28;20019;-71
2022/01/10 01:04:55;;;;;;;16.42;9.40;;;4.10;99.90;;;;;;2114965;27;20080;-71
2022/01/10 01:05:56;;;;;;;16.58;9.32;;;4.10;99.90;;;;;;2116577;28;20016;-70
2022/01/10 01:06:57;;;;;;;14.20;9.55;;;4.10;99.90;;;;;;2113997;28;20030;-70
2022/01/10 01:08:01;;;;;;;13.65;8.88;;;4.10;99.90;;;;;;2114272;28;20103;-69
2022/01/10 01:09:08;;;;;;;16.00;8.85;;;4.10;99.90;;;;;;2122359;27;20039;-72
2022/01/10 01:12:47;;;;;;;13.43;8.45;;;4.10;99.90;;;;;;2116250;28;20016;-72
2022/01/10 01:14:05;;;;;;;15.55;8.50;;;4.10;99.90;;;;;;2113355;28;20024;-72
2022/01/10 01:15:18;;;;;;;14.38;8.32;;;4.10;99.90;;;;;;2114399;28;20039;-72
2022/01/10 01:16:30;;;;;;;17.52;9.40;;;4.10;99.90;;;;;;2115005;28;20660;-72
2022/01/10 01:17:35;;;;;;;13.73;8.73;;;4.10;99.90;;;;;;2114104;28;20019;-71
2022/01/10 01:19:06;;;;;;;15.65;9.18;;;4.10;99.90;;;;;;2115387;28;20040;-70
2022/01/10 01:20:10;;;;;;;17.90;9.55;;;4.10;99.90;;;;;;2115251;28;20163;-70
2022/01/10 01:25:01;;;;;;;17.38;9.77;;;4.00;99.90;;;;;;2114123;28;20020;-71
2022/01/10 01:26:03;;;;;;;15.57;9.02;;;4.10;99.90;;;;;;2115527;28;20028;-71
2022/01/10 01:27:05;;;;;;;16.33;9.57;;;4.10;99.90;;;;;;2114226;28;20399;-70
2022/01/10 01:28:06;;;;;;;17.52;8.98;;;4.10;99.90;;;;;;2114204;28;20046;-72
2022/01/10 01:29:08;;;;;;;16.30;9.02;;;4.10;99.90;;;;;;2112529;28;20077;-70
2022/01/10 01:30:09;;;;;;;14.93;9.43;;;4.10;99.90;;;;;;2116327;28;20478;-70
2022/01/10 01:31:10;;;;;;;17.00;9.30;;;4.10;99.90;;;;;;2121595;27;20035;-70
2022/01/10 01:32:11;;;;;;;14.82;9.75;;;4.10;99.90;;;;;;2122766;27;20050;-72
2022/01/10 01:33:14;;;;;;;16.25;9.18;;;4.10;99.90;;;;;;2114588;28;20027;-72
2022/01/10 01:34:18;;;;;;;16.15;9.32;;;4.10;99.90;;;;;;2114762;28;20028;-72
2022/01/10 01:35:24;;;;;;;18.00;9.38;;;4.10;99.90;;;;;;2114730;28;20024;-72
2022/01/10 01:36:26;;;;;;;18.15;9.80;;;4.10;99.90;;;;;;2116921;28;20020;-71
2022/01/10 01:37:27;;;;;;;16.50;9.70;;;4.10;99.90;;;;;;2116957;27;20021;-71
2022/01/10 01:38:28;;;;;;;16.95;9.63;;;4.10;99.90;;;;;;2122871;27;20505;-73
2022/01/10 01:39:31;;;;;;;16.70;9.02;;;4.10;99.90;;;;;;2113488;28;20024;-72
2022/01/10 01:40:40;;;;;;;19.20;9.75;;;4.10;99.90;;;;;;2114519;28;20402;-71
2022/01/10 01:41:44;;;;;;;16.88;9.55;;;4.10;99.90;;;;;;2114463;27;20039;-71
2022/01/10 01:42:45;;;;;;;17.17;9.35;;;4.10;99.90;;;;;;2122804;27;20098;-72
2022/01/10 01:43:47;;;;;;;15.30;9.35;;;4.10;99.90;;;;;;2114579;28;20034;-73
2022/01/10 01:44:49;;;;;;;16.83;9.85;;;4.10;99.90;;;;;;2115981;28;20020;-72
2022/01/10 01:45:50;;;;;;;14.93;9.77;;;4.10;99.90;;;;;;2112399;28;20027;-71
2022/01/10 01:46:50;;;;;;;16.15;10.10;;;4.10;99.90;;;;;;2114294;28;20027;-72
2022/01/10 01:47:53;;;;;;;15.90;10.07;;;4.10;99.90;;;;;;2115089;28;20027;-70
2022/01/10 01:48:59;;;;;;;17.77;10.48;;;4.10;99.90;;;;;;2112597;28;20034;-71
2022/01/10 01:50:04;;;;;;;17.80;9.95;;;4.10;99.90;;;;;;2106004;28;20383;-72
2022/01/10 01:51:04;;;;;;;13.90;9.70;;;4.10;99.90;;;;;;2100277;28;20035;-71
2022/01/10 01:52:05;;;;;;;17.70;10.43;;;4.10;99.90;;;;;;2114514;28;20032;-72
2022/01/10 01:53:07;;;;;;;17.40;10.00;;;4.10;99.90;;;;;;2112836;28;20032;-72
2022/01/10 01:54:09;;;;;;;20.02;10.38;;;4.10;99.90;;;;;;2116464;28;20360;-72
2022/01/10 01:55:11;;;;;;;19.95;10.60;;;4.10;99.90;;;;;;2112586;28;20138;-71
2022/01/10 01:56:14;;;;;;;19.13;10.88;;;4.10;99.90;;;;;;2114178;28;20043;-71
2022/01/10 01:57:15;;;;;;;19.65;10.43;;;4.10;99.90;;;;;;2114540;28;20100;-71
2022/01/10 01:58:16;;;;;;;16.35;9.85;;;4.10;99.90;;;;;;2114131;28;20244;-70
2022/01/10 01:59:17;;;;;;;16.83;10.10;;;4.10;99.90;;;;;;2103510;28;20016;-69
2022/01/10 02:00:19;;;;;;;19.10;10.40;;;4.10;99.90;;;;;;2107462;28;20028;-74
2022/01/10 02:01:21;;;;;;;16.83;9.90;;;4.10;99.90;;;;;;2112746;28;20109;-74
2022/01/10 02:02:23;;;;;;;16.80;10.32;;;4.10;99.90;;;;;;2114242;28;20050;-72
2022/01/10 02:03:24;;;;;;;17.38;10.23;;;4.10;99.90;;;;;;2113968;28;20046;-71
2022/01/10 02:04:35;;;;;;;15.68;9.70;;;4.10;99.90;;;;;;2114767;28;20039;-73
2022/01/10 02:05:38;;;;;;;14.95;9.48;;;4.10;99.90;;;;;;2113687;28;20028;-71
2022/01/10 02:06:39;;;;;;;15.35;9.73;;;4.10;99.90;;;;;;2115034;28;20019;-72
2022/01/10 02:07:40;;;;;;;18.40;10.20;;;4.10;99.90;;;;;;2120770;27;20382;-70
2022/01/10 02:08:43;;;;;;;19.00;10.10;;;4.10;99.90;;;;;;2115297;28;20794;-73
2022/01/10 02:09:44;;;;;;;15.75;9.98;;;4.10;99.90;;;;;;2112614;28;20020;-74
2022/01/10 02:10:45;;;;;;;14.27;9.50;;;4.10;99.90;;;;;;2114051;28;20052;-73
2022/01/10 02:11:46;;;;;;;17.75;9.85;;;4.10;99.90;;;;;;2113524;28;20065;-72
2022/01/10 02:12:48;;;;;;;16.17;9.65;;;4.10;99.90;;;;;;2114345;28;20011;-71
2022/01/10 02:13:54;;;;;;;17.30;10.05;;;4.10;99.90;;;;;;2112898;28;20429;-73
2022/01/10 02:15:04;;;;;;;18.77;10.45;;;4.10;99.90;;;;;;2106701;28;20050;-71
2022/01/10 02:16:07;;;;;;;17.52;10.23;;;4.10;99.90;;;;;;2105958;28;20115;-70
2022/01/10 02:17:16;;;;;;;19.58;10.68;;;4.10;99.90;;;;;;2112333;28;20035;-69
2022/01/10 02:18:24;;;;;;;19.63;10.45;;;4.10;99.90;;;;;;2117065;27;20023;-72
2022/01/10 02:19:27;;;;;;;16.08;10.40;;;4.10;99.90;;;;;;2111842;28;20081;-71
2022/01/10 02:20:33;;;;;;;16.70;10.25;;;4.10;99.90;;;;;;2114284;28;20058;-70
2022/01/10 02:21:34;;;;;;;15.27;9.80;;;4.10;99.90;;;;;;2113365;28;20140;-70
2022/01/10 02:22:38;;;;;;;18.27;10.38;;;4.10;99.90;;;;;;2114064;28;20479;-71
2022/01/10 02:24:07;;;;;;;15.90;9.73;;;4.10;99.90;;;;;;2115868;28;20078;-73
2022/01/10 02:25:09;;;;;;;23.00;10.50;;;4.10;99.90;;;;;;2105375;28;20028;-73
2022/01/10 02:26:10;;;;;;;18.05;10.32;;;4.10;99.90;;;;;;2105697;28;20028;-71
2022/01/10 02:27:14;;;;;;;18.30;10.30;;;4.10;99.90;;;;;;2113925;28;20690;-71
2022/01/10 02:28:15;;;;;;;17.65;10.02;;;4.10;99.90;;;;;;2114185;28;20035;-72
2022/01/10 02:29:16;;;;;;;15.90;10.13;;;4.10;99.90;;;;;;2111684;28;20028;-71
2022/01/10 02:30:17;;;;;;;21.15;10.15;;;4.10;99.90;;;;;;2115575;28;20027;-73
2022/01/10 02:31:18;;;;;;;20.38;10.02;;;4.10;99.90;;;;;;2112894;28;20410;-71
2022/01/10 02:32:20;;;;;;;19.40;10.55;;;4.10;99.90;;;;;;2105708;28;20028;-70
2022/01/10 02:33:22;;;;;;;18.85;10.07;;;4.10;99.90;;;;;;2106029;28;20480;-70
2022/01/10 02:34:25;;;;;;;18.80;10.20;;;4.10;99.90;;;;;;2114186;28;20104;-73
2022/01/10 02:35:38;;;;;;;19.58;10.18;;;4.10;99.90;;;;;;2112452;28;20022;-74
2022/01/10 02:36:41;;;;;;;16.30;10.23;;;4.10;99.90;;;;;;2114413;28;20558;-71
2022/01/10 02:37:42;;;;;;;17.05;10.00;;;4.10;99.90;;;;;;2103969;28;20035;-73
2022/01/10 02:39:19;;;;;;;18.10;10.18;;;4.10;99.90;;;;;;2106811;28;20119;-73
2022/01/10 02:40:22;;;;;;;18.08;10.05;;;4.10;99.90;;;;;;2107174;28;20056;-72
2022/01/10 02:41:34;;;;;;;19.42;10.57;;;4.10;99.90;;;;;;2112067;28;20028;-71
2022/01/10 02:42:37;;;;;;;18.67;10.52;;;4.10;99.90;;;;;;2115292;28;20044;-70
2022/01/10 02:43:39;;;;;;;22.60;11.02;;;4.10;99.90;;;;;;2111894;28;20028;-70
2022/01/10 02:44:42;;;;;;;19.45;10.60;;;4.10;99.90;;;;;;2114993;28;20202;-71
2022/01/10 02:45:43;;;;;;;17.63;10.23;;;4.10;99.90;;;;;;2112539;28;20050;-73
2022/01/10 02:46:46;;;;;;;17.98;9.70;;;4.10;99.90;;;;;;2114114;28;20503;-71
2022/01/10 02:48:07;;;;;;;17.77;9.90;;;4.10;99.90;;;;;;2115732;28;20694;-72
2022/01/10 02:49:15;;;;;;;15.32;9.70;;;4.10;99.90;;;;;;2112997;28;20387;-72
2022/01/10 02:50:19;;;;;;;19.50;10.25;;;4.10;99.90;;;;;;2115234;28;20027;-69
2022/01/10 02:51:20;;;;;;;16.05;9.63;;;4.10;99.90;;;;;;2113718;28;20380;-71
2022/01/10 02:52:22;;;;;;;17.08;10.07;;;4.10;99.90;;;;;;2113772;28;20035;-69
2022/01/10 02:53:25;;;;;;;18.35;10.23;;;4.10;99.90;;;;;;2112206;28;20023;-73
2022/01/10 02:54:25;;;;;;;20.85;10.32;;;4.10;99.90;;;;;;2113863;28;20168;-73
2022/01/10 02:55:27;;;;;;;18.70;10.98;;;4.20;99.90;;;;;;2113903;28;20172;-71
2022/01/10 02:56:27;;;;;;;20.17;10.93;;;4.10;99.90;;;;;;2113797;28;20509;-72
2022/01/10 02:57:29;;;;;;;20.02;10.65;;;4.10;99.90;;;;;;2113937;28;20020;-71
2022/01/10 02:58:30;;;;;;;18.60;10.55;;;4.10;99.90;;;;;;2113798;28;20118;-70
2022/01/10 02:59:31;;;;;;;19.05;10.63;;;4.10;99.90;;;;;;2104551;28;20032;-71
2022/01/10 03:00:31;;;;;;;17.30;10.35;;;4.10;99.90;;;;;;2105046;28;20038;-70
2022/01/10 03:01:32;;;;;;;21.23;10.60;;;4.10;99.90;;;;;;2113380;28;20031;-71
2022/01/10 03:02:34;;;;;;;18.48;10.95;;;4.10;99.90;;;;;;2113521;28;20019;-71
2022/01/10 03:03:35;;;;;;;19.52;10.40;;;4.10;99.90;;;;;;2113306;28;20027;-69
2022/01/10 03:04:36;;;;;;;18.02;10.20;;;4.10;99.90;;;;;;2113237;28;20118;-70
2022/01/10 03:05:36;;;;;;;16.40;10.27;;;4.10;99.90;;;;;;2113536;28;20750;-70
2022/01/10 03:06:38;;;;;;;23.48;10.43;;;4.10;99.90;;;;;;2113473;28;20058;-71
2022/01/10 03:07:39;;;;;;;18.50;10.15;;;4.10;99.90;;;;;;2121813;27;20030;-71
2022/01/10 03:08:40;;;;;;;21.67;10.23;;;4.10;99.90;;;;;;2113658;28;20032;-71
2022/01/10 03:09:42;;;;;;;17.38;10.70;;;4.10;99.90;;;;;;2113189;28;20036;-70
2022/01/10 03:10:44;;;;;;;17.33;10.40;;;4.10;99.90;;;;;;2113358;28;20074;-70
2022/01/10 03:11:44;;;;;;;15.57;9.48;;;4.20;99.90;;;;;;2112986;28;20407;-70
2022/01/10 03:12:46;;;;;;;18.85;9.85;;;4.10;99.90;;;;;;2113437;28;20537;-70
2022/01/10 03:13:48;;;;;;;14.68;9.85;;;4.10;99.90;;;;;;2113358;28;20027;-70
2022/01/10 03:14:49;;;;;;;20.75;10.23;;;4.20;99.90;;;;;;2113378;28;20502;-71
2022/01/10 03:15:50;;;;;;;16.98;9.88;;;4.10;99.90;;;;;;2105087;28;20024;-70
2022/01/10 03:16:51;;;;;;;16.08;9.93;;;4.20;99.90;;;;;;2113542;28;20020;-70
2022/01/10 03:17:51;;;;;;;15.95;10.10;;;4.10;99.90;;;;;;2113640;28;20551;-71
2022/01/10 03:18:52;;;;;;;15.13;9.57;;;4.10;99.90;;;;;;2113830;28;20882;-70
2022/01/10 03:19:53;;;;;;;15.15;9.38;;;4.10;99.90;;;;;;2122478;27;20115;-70
2022/01/10 03:20:54;;;;;;;16.30;10.43;;;4.20;99.90;;;;;;2114082;28;20023;-70
2022/01/10 03:21:55;;;;;;;20.13;10.27;;;4.10;99.90;;;;;;2113762;28;20509;-70
2022/01/10 03:22:55;;;;;;;19.02;10.18;;;4.10;99.90;;;;;;2114182;28;20031;-71
2022/01/10 03:23:59;;;;;;;19.05;10.27;;;4.10;99.90;;;;;;2113730;28;20037;-70
2022/01/10 03:25:00;;;;;;;17.52;9.63;;;4.10;99.90;;;;;;2113704;28;20023;-71
2022/01/10 03:26:02;;;;;;;18.50;9.93;;;4.10;99.90;;;;;;2105308;28;20020;-70
2022/01/10 03:27:03;;;;;;;19.83;10.23;;;4.10;99.90;;;;;;2105012;28;20016;-70
2022/01/10 03:28:04;;;;;;;22.60;10.57;;;4.10;99.90;;;;;;2113281;28;20098;-70
2022/01/10 03:29:05;;;;;;;18.90;10.10;;;4.10;99.90;;;;;;2104276;28;20032;-70
2022/01/10 03:30:06;;;;;;;16.65;9.95;;;4.20;99.90;;;;;;2104634;28;20063;-71
2022/01/10 03:31:07;;;;;;;21.33;10.32;;;4.10;99.90;;;;;;2113190;28;20190;-70
2022/01/10 03:32:08;;;;;;;18.88;10.65;;;4.10;99.90;;;;;;2113105;28;20140;-70
2022/01/10 03:33:09;;;;;;;18.05;10.15;;;4.10;99.90;;;;;;2113436;28;20411;-70
2022/01/10 03:34:13;;;;;;;16.60;10.10;;;4.10;99.90;;;;;;2113155;28;20546;-69
2022/01/10 03:35:14;;;;;;;15.43;9.45;;;4.20;99.90;;;;;;2113091;28;20480;-70
2022/01/10 03:36:15;;;;;;;15.88;9.52;;;4.20;99.90;;;;;;2113324;28;20058;-70
2022/01/10 03:37:16;;;;;;;16.70;9.77;;;4.20;99.90;;;;;;2113338;28;20130;-70
2022/01/10 03:38:19;;;;;;;18.88;10.48;;;4.20;99.90;;;;;;2113420;28;20035;-70
2022/01/10 03:39:20;;;;;;;19.25;10.35;;;4.20;99.90;;;;;;2104634;28;20027;-71
2022/01/10 03:40:21;;;;;;;19.63;10.43;;;4.20;99.90;;;;;;2105231;28;20063;-70
2022/01/10 03:41:23;;;;;;;18.55;10.20;;;4.20;99.90;;;;;;2104753;28;20028;-70
2022/01/10 03:42:23;;;;;;;20.13;10.93;;;4.20;99.90;;;;;;2113260;28;20035;-70
2022/01/10 03:43:25;;;;;;;18.83;10.32;;;4.20;99.90;;;;;;2113357;28;20153;-68
2022/01/10 03:44:25;;;;;;;16.98;10.18;;;4.20;99.90;;;;;;2113254;28;20108;-69
2022/01/10 03:45:27;;;;;;;22.67;10.65;;;4.20;99.90;;;;;;2113299;28;20427;-69
2022/01/10 03:46:29;;;;;;;18.55;10.35;;;4.20;99.90;;;;;;2105008;28;20043;-70
2022/01/10 03:47:29;;;;;;;18.67;10.38;;;4.20;99.90;;;;;;2096819;28;20032;-68
2022/01/10 03:48:30;;;;;;;18.27;10.52;;;4.20;99.90;;;;;;2105099;28;20111;-72
2022/01/10 03:49:31;;;;;;;18.90;11.02;;;4.20;99.90;;;;;;2112860;28;20120;-69
2022/01/10 03:50:31;;;;;;;20.02;10.50;;;4.10;99.90;;;;;;2113495;28;20135;-68
2022/01/10 03:51:33;;;;;;;19.77;10.88;;;4.10;99.90;;;;;;2112535;28;20028;-72
2022/01/10 03:52:33;;;;;;;24.35;11.02;;;4.10;99.90;;;;;;2113245;28;20390;-69
2022/01/10 03:53:36;;;;;;;18.25;10.25;;;4.10;99.90;;;;;;2104828;28;20031;-72
2022/01/10 03:54:36;;;;;;;22.00;10.80;;;4.10;99.90;;;;;;2104990;28;20062;-71
2022/01/10 03:55:38;;;;;;;19.05;10.60;;;4.10;99.90;;;;;;2104911;28;20032;-70
2022/01/10 03:56:40;;;;;;;19.95;10.80;;;4.10;99.90;;;;;;2096977;28;20704;-71
2022/01/10 03:57:43;;;;;;;17.48;10.18;;;4.10;99.90;;;;;;2104926;28;20020;-70
2022/01/10 03:58:43;;;;;;;19.13;10.93;;;4.10;99.90;;;;;;2104112;28;20490;-71
2022/01/10 03:59:44;;;;;;;19.98;11.43;;;4.10;99.90;;;;;;2104416;28;20107;-70
2022/01/10 04:00:45;;;;;;;21.20;11.50;;;4.10;99.90;;;;;;2096314;28;20032;-70
2022/01/10 04:01:45;;;;;;;19.08;11.00;;;4.10;99.90;;;;;;2104621;28;20090;-70
2022/01/10 04:02:54;;;;;;;20.52;11.55;;;4.10;99.90;;;;;;2112984;28;20032;-70
2022/01/10 04:04:00;;;;;;;19.40;11.77;;;4.20;99.90;;;;;;2106410;28;20077;-69
2022/01/10 04:05:01;;;;;;;20.67;11.38;;;4.20;99.90;;;;;;2105159;28;20433;-71
2022/01/10 04:06:02;;;;;;;20.77;12.05;;;4.20;99.90;;;;;;2113320;28;20110;-70
2022/01/10 04:07:04;;;;;;;15.20;10.27;;;4.20;99.90;;;;;;2113248;28;20408;-73
2022/01/10 04:08:05;;;;;;;18.67;11.25;;;4.20;99.90;;;;;;2112970;28;20020;-72
2022/01/10 04:09:05;;;;;;;18.38;11.25;;;4.20;99.90;;;;;;2112782;28;20155;-73
2022/01/10 04:10:07;;;;;;;17.50;10.57;;;4.20;99.90;;;;;;2112881;28;20075;-72
2022/01/10 04:11:07;;;;;;;18.92;11.15;;;4.20;99.90;;;;;;2113170;28;20498;-72
2022/01/10 04:12:08;;;;;;;20.65;11.30;;;4.20;99.90;;;;;;2112667;28;20028;-72
2022/01/10 04:13:09;;;;;;;19.75;11.38;;;4.20;99.90;;;;;;2105030;28;20024;-71
2022/01/10 04:14:10;;;;;;;20.08;11.43;;;4.20;99.90;;;;;;2105044;28;20020;-71
2022/01/10 04:15:11;;;;;;;22.35;12.10;;;4.20;99.90;;;;;;2113185;28;20031;-72
2022/01/10 04:16:11;;;;;;;17.33;11.25;;;4.20;99.90;;;;;;2113892;28;20033;-72
2022/01/10 04:17:13;;;;;;;22.83;12.57;;;4.20;99.90;;;;;;2113136;28;20015;-73
2022/01/10 04:18:14;;;;;;;19.30;12.55;;;4.20;99.90;;;;;;2113112;28;20058;-72
2022/01/10 04:19:15;;;;;;;20.52;12.65;;;4.20;99.90;;;;;;2112482;28;20376;-72
2022/01/10 04:20:15;;;;;;;21.00;11.95;;;4.20;99.90;;;;;;2096379;28;20154;-72
2022/01/10 04:21:16;;;;;;;21.67;12.57;;;4.20;99.90;;;;;;2104874;28;20032;-73
2022/01/10 04:22:17;;;;;;;22.75;12.63;;;4.20;99.90;;;;;;2112838;28;20036;-72
2022/01/10 04:23:18;;;;;;;21.15;12.50;;;4.20;99.90;;;;;;2096269;28;20035;-74
2022/01/10 04:24:19;;;;;;;22.35;12.43;;;4.20;99.90;;;;;;2104585;28;20036;-74
2022/01/10 04:25:20;;;;;;;19.35;12.02;;;4.20;99.90;;;;;;2104521;28;20153;-72
2022/01/10 04:26:21;;;;;;;23.98;12.73;;;4.20;99.90;;;;;;2104534;28;20340;-74
2022/01/10 04:27:23;;;;;;;23.20;12.50;;;4.20;99.90;;;;;;2104650;28;20031;-74
2022/01/10 04:28:24;;;;;;;23.08;12.27;;;4.20;99.90;;;;;;2112856;28;20027;-74
2022/01/10 04:29:25;;;;;;;20.60;12.13;;;4.20;99.90;;;;;;2112067;28;20028;-73
2022/01/10 04:30:26;;;;;;;21.13;11.88;;;4.20;99.90;;;;;;2104467;28;20028;-73
2022/01/10 04:31:27;;;;;;;21.20;12.73;;;4.20;99.90;;;;;;2112771;28;20043;-74
2022/01/10 04:32:30;;;;;;;23.00;12.93;;;4.20;99.90;;;;;;2104543;28;20018;-72
2022/01/10 04:33:32;;;;;;;21.45;12.52;;;4.20;99.90;;;;;;2105579;28;20035;-73
2022/01/10 04:34:33;;;;;;;18.50;12.00;;;4.20;99.90;;;;;;2112901;28;20019;-70
2022/01/10 04:35:34;;;;;;;21.67;12.73;;;4.20;99.90;;;;;;2113016;28;20086;-73
2022/01/10 04:36:35;;;;;;;18.48;12.07;;;4.20;99.90;;;;;;2104712;28;20153;-68
2022/01/10 04:37:35;;;;;;;23.95;12.63;;;4.20;99.90;;;;;;2104580;28;20051;-71
2022/01/10 04:38:36;;;;;;;19.85;12.75;;;4.10;99.90;;;;;;2104056;28;20491;-70
2022/01/10 04:39:37;;;;;;;24.23;13.40;;;4.20;99.90;;;;;;2112887;28;20517;-71
2022/01/10 04:40:38;;;;;;;21.50;12.07;;;4.20;99.90;;;;;;2112694;28;20024;-72
2022/01/10 04:41:39;;;;;;;23.40;12.98;;;4.20;99.90;;;;;;2112694;28;20035;-69
2022/01/10 04:42:40;;;;;;;20.48;12.30;;;4.20;99.90;;;;;;2104479;28;20097;-71
2022/01/10 04:43:41;;;;;;;23.83;13.02;;;4.20;99.90;;;;;;2104664;28;20031;-71
2022/01/10 04:44:42;;;;;;;23.42;13.07;;;4.20;99.90;;;;;;2104540;28;20766;-71
2022/01/10 04:45:43;;;;;;;25.42;13.57;;;4.20;99.90;;;;;;2104704;28;20445;-70
2022/01/10 04:46:44;;;;;;;23.92;12.93;;;4.20;99.90;;;;;;2104806;28;20032;-72
2022/01/10 04:47:45;;;;;;;23.98;13.43;;;4.20;99.90;;;;;;2104568;28;20039;-69
2022/01/10 04:48:48;;;;;;;21.95;13.25;;;4.20;99.90;;;;;;2104443;28;20024;-73
2022/01/10 04:50:07;;;;;;;25.05;13.35;;;4.20;99.90;;;;;;2112905;28;20059;-70
2022/01/10 04:51:15;;;;;;;21.23;12.60;;;4.20;99.90;;;;;;2107480;28;20036;-72
2022/01/10 04:52:16;;;;;;;25.33;13.63;;;4.20;99.90;;;;;;2106462;28;20031;-71
2022/01/10 04:53:16;;;;;;;25.58;14.00;;;4.20;99.90;;;;;;2114470;28;20051;-72
2022/01/10 04:54:18;;;;;;;20.77;13.00;;;4.20;99.90;;;;;;2114960;28;20045;-72
2022/01/10 04:55:19;;;;;;;22.83;13.00;;;4.10;99.90;;;;;;2105289;28;20032;-72
2022/01/10 04:56:21;;;;;;;21.55;13.02;;;4.20;99.90;;;;;;2104597;28;20047;-73
2022/01/10 04:57:23;;;;;;;24.23;13.00;;;4.10;99.90;;;;;;2112623;28;20024;-72
2022/01/10 04:58:24;;;;;;;23.65;13.25;;;4.10;99.90;;;;;;2112872;28;20027;-72
2022/01/10 04:59:25;;;;;;;22.13;13.38;;;4.10;99.90;;;;;;2112124;28;20498;-72
2022/01/10 05:00:25;;;;;;;25.00;13.45;;;4.10;99.90;;;;;;2112722;28;20035;-72
2022/01/10 05:01:26;;;;;;;23.77;13.45;;;4.10;99.90;;;;;;2112498;28;20050;-73
2022/01/10 05:02:31;;;;;;;22.13;13.50;;;4.10;99.90;;;;;;2104776;28;20024;-73
2022/01/10 05:03:33;;;;;;;22.75;12.30;;;4.10;99.90;;;;;;2114085;28;20055;-73
2022/01/10 05:04:34;;;;;;;25.80;12.80;;;4.10;99.90;;;;;;2122678;27;20027;-73
2022/01/10 05:05:35;;;;;;;24.83;13.65;;;4.10;99.90;;;;;;2114265;28;20137;-72
2022/01/10 05:06:36;;;;;;;23.73;12.75;;;4.10;99.90;;;;;;2115061;28;20030;-73
2022/01/10 05:07:37;;;;;;;23.02;13.07;;;4.10;99.90;;;;;;2114573;28;20031;-73
2022/01/10 05:08:38;;;;;;;20.77;12.70;;;4.10;99.90;;;;;;2113989;28;20027;-72
2022/01/10 05:09:44;;;;;;;23.17;14.05;;;4.10;99.90;;;;;;2105992;28;20028;-71
2022/01/10 05:10:48;;;;;;;23.00;12.80;;;4.10;99.90;;;;;;2098981;28;20066;-72
2022/01/10 05:11:49;;;;;;;25.88;13.38;;;4.10;99.90;;;;;;2105980;28;20173;-72
2022/01/10 05:12:51;;;;;;;24.88;12.88;;;4.20;99.90;;;;;;2106253;28;20111;-71
2022/01/10 05:13:52;;;;;;;26.20;12.82;;;4.10;99.90;;;;;;2114903;28;20024;-72
2022/01/10 05:14:53;;;;;;;23.10;12.63;;;4.10;99.90;;;;;;2106341;28;20078;-72
2022/01/10 05:15:54;;;;;;;23.52;13.07;;;4.10;99.90;;;;;;2106663;28;20028;-72
2022/01/10 05:16:55;;;;;;;27.95;12.70;;;4.10;99.90;;;;;;2114836;28;20055;-68
2022/01/10 05:17:55;;;;;;;25.15;13.13;;;4.10;99.90;;;;;;2114761;28;20461;-71
2022/01/10 05:18:56;;;;;;;26.52;13.65;;;4.10;99.90;;;;;;2113944;28;20026;-68
2022/01/10 05:19:56;;;;;;;27.08;13.40;;;4.10;99.90;;;;;;2114655;28;20638;-69
2022/01/10 05:20:57;;;;;;;22.70;13.25;;;4.10;99.90;;;;;;2114236;28;20066;-71
2022/01/10 05:21:58;;;;;;;23.63;13.38;;;4.10;99.90;;;;;;2105746;28;20028;-71
2022/01/10 05:22:59;;;;;;;27.20;13.70;;;4.10;99.90;;;;;;2105939;28;20021;-70
2022/01/10 05:24:00;;;;;;;26.00;13.07;;;4.10;99.90;;;;;;2114553;28;20020;-70
2022/01/10 05:25:00;;;;;;;23.17;12.60;;;4.10;99.90;;;;;;2106063;28;20031;-72
2022/01/10 05:26:01;;;;;;;21.20;12.50;;;4.20;99.90;;;;;;2106177;28;20537;-71
2022/01/10 05:27:03;;;;;;;24.55;13.55;;;4.20;99.90;;;;;;2114178;28;20058;-71
2022/01/10 05:28:05;;;;;;;22.42;13.07;;;4.20;99.90;;;;;;2114437;28;20027;-71